createdAt,value
2019-02-15T00:00:45.345Z,8.28
2019-02-15T00:01:39.831Z,8.25
2019-02-15T00:02:15.122Z,8.35
2019-02-15T00:02:49.076Z,6.95
2019-02-15T00:03:22.956Z,8.70
2019-02-15T00:04:01.102Z,9.48
2019-02-15T00:04:35.521Z,9.13
2019-02-15T00:05:09.366Z,8.53
2019-02-15T00:05:43.421Z,8.05
2019-02-15T00:06:17.535Z,8.30
2019-02-15T00:06:51.350Z,9.13
2019-02-15T00:07:25.078Z,9.48
2019-02-15T00:07:58.776Z,8.38
2019-02-15T00:08:37.162Z,8.38
2019-02-15T00:09:11.283Z,8.75
2019-02-15T00:09:45.376Z,9.10
2019-02-15T00:10:20.664Z,8.40
2019-02-15T00:10:55.383Z,9.05
2019-02-15T00:11:29.317Z,8.08
2019-02-15T00:12:03.013Z,9.18
2019-02-15T00:12:37.311Z,8.55
2019-02-15T00:13:13.519Z,8.65
2019-02-15T00:13:47.181Z,8.80
2019-02-15T00:14:20.833Z,8.43
2019-02-15T00:14:54.820Z,8.20
2019-02-15T00:15:28.797Z,7.87
2019-02-15T00:16:02.996Z,8.68
2019-02-15T00:16:37.743Z,9.48
2019-02-15T00:17:11.805Z,8.30
2019-02-15T00:18:10.522Z,8.80
2019-02-15T00:19:06.066Z,7.83
2019-02-15T00:19:43.398Z,7.12
2019-02-15T00:20:26.716Z,8.53
2019-02-15T00:21:16.100Z,8.48
2019-02-15T00:21:51.615Z,8.18
2019-02-15T00:22:25.689Z,8.30
2019-02-15T00:23:00.629Z,8.78
2019-02-15T00:23:34.808Z,7.97
2019-02-15T00:24:09.621Z,7.60
2019-02-15T00:24:43.182Z,7.62
2019-02-15T00:25:16.786Z,8.33
2019-02-15T00:25:51.062Z,9.13
2019-02-15T00:26:24.845Z,8.83
2019-02-15T00:26:59.923Z,7.50
2019-02-15T00:27:34.349Z,6.83
2019-02-15T00:28:08.243Z,7.87
2019-02-15T00:28:42.203Z,8.30
2019-02-15T00:29:16.984Z,7.83
2019-02-15T00:29:50.513Z,8.63
2019-02-15T00:30:24.334Z,9.53
2019-02-15T00:30:58.211Z,8.38
2019-02-15T00:31:32.017Z,8.18
2019-02-15T00:32:06.457Z,8.03
2019-02-15T00:32:40.516Z,8.23
2019-02-15T00:33:14.509Z,8.68
2019-02-15T00:33:48.239Z,7.70
2019-02-15T00:34:22.308Z,8.40
2019-02-15T00:34:55.862Z,8.30
2019-02-15T00:35:29.794Z,8.00
2019-02-15T00:36:03.517Z,8.20
2019-02-15T00:36:37.768Z,8.23
2019-02-15T00:37:11.872Z,7.72
2019-02-15T00:37:45.774Z,8.00
2019-02-15T00:38:19.651Z,8.58
2019-02-15T00:38:54.210Z,7.92
2019-02-15T00:39:28.050Z,8.20
2019-02-15T00:40:01.765Z,8.00
2019-02-15T00:40:35.595Z,8.23
2019-02-15T00:41:09.763Z,8.28
2019-02-15T00:41:44.011Z,8.78
2019-02-15T00:42:17.830Z,8.18
2019-02-15T00:42:51.359Z,6.95
2019-02-15T00:43:25.019Z,8.15
2019-02-15T00:43:59.236Z,8.60
2019-02-15T00:44:32.788Z,8.25
2019-02-15T00:45:06.648Z,8.73
2019-02-15T00:45:48.341Z,7.85
2019-02-15T00:46:40.802Z,8.18
2019-02-15T00:47:37.476Z,7.50
2019-02-15T00:48:15.104Z,7.47
2019-02-15T00:49:00.387Z,7.60
2019-02-15T00:50:00.023Z,7.85
2019-02-15T00:50:54.011Z,7.75
2019-02-15T00:51:50.162Z,7.35
2019-02-15T00:52:43.788Z,6.42
2019-02-15T00:53:57.537Z,8.73
2019-02-15T00:54:40.191Z,7.35
2019-02-15T00:55:30.649Z,7.10
2019-02-15T00:56:18.546Z,7.85
2019-02-15T00:57:16.514Z,7.80
2019-02-15T00:58:06.497Z,7.92
2019-02-15T00:59:02.255Z,7.83
2019-02-15T01:00:01.218Z,7.78
2019-02-15T01:00:57.478Z,7.42
2019-02-15T01:01:50.773Z,7.58
2019-02-15T01:02:43.116Z,7.35
2019-02-15T01:03:29.472Z,8.08
2019-02-15T01:04:10.241Z,7.70
2019-02-15T01:04:58.960Z,7.30
2019-02-15T01:05:50.381Z,7.42
2019-02-15T01:06:49.636Z,7.15
2019-02-15T01:07:36.736Z,7.70
2019-02-15T01:08:29.477Z,7.97
2019-02-15T01:09:12.465Z,8.00
2019-02-15T01:09:51.665Z,6.97
2019-02-15T01:10:50.165Z,8.15
2019-02-15T01:11:51.382Z,7.22
2019-02-15T01:12:56.256Z,8.08
2019-02-15T01:13:31.346Z,8.18
2019-02-15T01:14:05.389Z,8.05
2019-02-15T01:14:38.874Z,8.38
2019-02-15T01:15:12.698Z,8.50
2019-02-15T01:15:46.372Z,8.00
2019-02-15T01:16:20.730Z,7.92
2019-02-15T01:16:55.065Z,6.92
2019-02-15T01:17:30.184Z,7.97
2019-02-15T01:18:04.796Z,8.30
2019-02-15T01:18:38.820Z,8.23
2019-02-15T01:19:14.628Z,7.42
2019-02-15T01:19:48.658Z,8.10
2019-02-15T01:20:23.320Z,8.10
2019-02-15T01:20:57.222Z,7.78
2019-02-15T01:21:31.535Z,8.88
2019-02-15T01:22:05.567Z,7.90
2019-02-15T01:22:39.524Z,8.75
2019-02-15T01:23:13.421Z,8.48
2019-02-15T01:23:47.461Z,9.73
2019-02-15T01:24:21.804Z,9.35
2019-02-15T01:24:55.451Z,9.13
2019-02-15T01:25:33.186Z,9.68
2019-02-15T01:26:14.539Z,9.93
2019-02-15T01:26:52.260Z,8.13
2019-02-15T01:27:53.825Z,8.23
2019-02-15T01:28:35.686Z,8.43
2019-02-15T01:29:31.485Z,7.78
2019-02-15T01:30:24.027Z,8.90
2019-02-15T01:31:15.323Z,7.67
2019-02-15T01:32:07.133Z,9.13
2019-02-15T01:33:05.645Z,9.23
2019-02-15T01:34:04.598Z,7.85
2019-02-15T01:34:44.403Z,7.42
2019-02-15T01:35:30.502Z,8.80
2019-02-15T01:36:29.210Z,9.43
2019-02-15T01:37:34.202Z,7.85
2019-02-15T01:38:42.457Z,7.78
2019-02-15T01:39:40.928Z,8.05
2019-02-15T01:40:29.566Z,7.95
2019-02-15T01:41:22.828Z,9.20
2019-02-15T01:42:20.394Z,8.78
2019-02-15T01:43:08.777Z,7.72
2019-02-15T01:43:55.962Z,8.65
2019-02-15T01:44:39.752Z,7.47
2019-02-15T01:45:20.534Z,7.80
2019-02-15T01:46:02.202Z,8.70
2019-02-15T01:46:49.406Z,8.80
2019-02-15T01:47:45.857Z,8.18
2019-02-15T01:48:19.740Z,7.70
2019-02-15T01:48:53.592Z,8.13
2019-02-15T01:49:27.179Z,8.98
2019-02-15T01:50:00.777Z,8.53
2019-02-15T01:50:34.269Z,7.95
2019-02-15T01:51:07.779Z,9.15
2019-02-15T01:51:41.472Z,9.45
2019-02-15T01:52:15.280Z,9.20
2019-02-15T01:52:48.832Z,8.20
2019-02-15T01:53:26.531Z,8.53
2019-02-15T01:54:00.471Z,9.45
2019-02-15T01:54:34.069Z,8.15
2019-02-15T01:55:07.632Z,8.50
2019-02-15T01:55:47.200Z,8.83
2019-02-15T01:56:20.807Z,8.58
2019-02-15T01:56:55.384Z,9.00
2019-02-15T01:57:30.335Z,8.28
2019-02-15T01:58:04.574Z,9.10
2019-02-15T01:58:38.756Z,10.10
2019-02-15T01:59:17.754Z,9.50
2019-02-15T01:59:51.566Z,8.20
2019-02-15T02:00:28.911Z,8.28
2019-02-15T02:01:02.800Z,10.15
2019-02-15T02:01:43.237Z,9.20
2019-02-15T02:02:17.257Z,9.30
2019-02-15T02:02:50.848Z,8.48
2019-02-15T02:03:24.419Z,8.65
2019-02-15T02:03:58.431Z,7.97
2019-02-15T02:04:32.806Z,9.10
2019-02-15T02:05:08.992Z,8.73
2019-02-15T02:05:43.131Z,8.05
2019-02-15T02:06:16.858Z,7.65
2019-02-15T02:06:51.795Z,9.00
2019-02-15T02:07:25.580Z,8.45
2019-02-15T02:08:02.227Z,8.28
2019-02-15T02:08:36.286Z,8.05
2019-02-15T02:09:09.734Z,9.00
2019-02-15T02:09:43.284Z,7.58
2019-02-15T02:10:17.764Z,9.08
2019-02-15T02:10:53.175Z,7.75
2019-02-15T02:11:26.850Z,8.80
2019-02-15T02:12:00.785Z,8.70
2019-02-15T02:12:35.666Z,8.68
2019-02-15T02:13:09.232Z,8.15
2019-02-15T02:13:49.282Z,8.48
2019-02-15T02:14:18.411Z,8.00
2019-02-15T02:14:52.304Z,8.25
2019-02-15T02:15:26.857Z,8.70
2019-02-15T02:16:02.858Z,7.65
2019-02-15T02:16:36.505Z,8.85
2019-02-15T02:17:10.704Z,8.70
2019-02-15T02:17:47.266Z,8.73
2019-02-15T02:18:20.767Z,8.95
2019-02-15T02:18:54.813Z,8.53
2019-02-15T02:19:29.914Z,9.00
2019-02-15T02:20:08.806Z,9.90
2019-02-15T02:20:45.633Z,7.92
2019-02-15T02:21:20.444Z,8.48
2019-02-15T02:21:53.968Z,8.73
2019-02-15T02:22:43.984Z,8.63
2019-02-15T02:23:20.861Z,10.00
2019-02-15T02:23:55.429Z,7.85
2019-02-15T02:24:33.685Z,7.42
2019-02-15T02:25:08.044Z,8.78
2019-02-15T02:25:42.613Z,7.83
2019-02-15T02:26:45.623Z,8.40
2019-02-15T02:27:19.487Z,8.25
2019-02-15T02:27:53.366Z,8.25
2019-02-15T02:28:27.375Z,8.03
2019-02-15T02:29:14.137Z,7.92
2019-02-15T02:29:50.521Z,8.03
2019-02-15T02:30:25.820Z,9.78
2019-02-15T02:31:01.952Z,8.53
2019-02-15T02:31:42.364Z,8.73
2019-02-15T02:32:32.967Z,8.55
2019-02-15T02:33:44.865Z,8.33
2019-02-15T02:34:27.110Z,9.18
2019-02-15T02:35:35.151Z,9.78
2019-02-15T02:36:14.936Z,7.62
2019-02-15T02:36:57.705Z,8.35
2019-02-15T02:37:31.567Z,9.13
2019-02-15T02:38:05.364Z,8.10
2019-02-15T02:38:39.613Z,7.53
2019-02-15T02:39:13.587Z,10.75
2019-02-15T02:39:48.446Z,8.38
2019-02-15T02:40:24.080Z,8.30
2019-02-15T02:40:57.667Z,8.38
2019-02-15T02:42:02.854Z,9.43
2019-02-15T02:42:40.169Z,7.55
2019-02-15T02:43:29.931Z,9.83
2019-02-15T02:44:24.597Z,9.03
2019-02-15T02:44:59.404Z,8.10
2019-02-15T02:45:33.287Z,7.90
2019-02-15T02:46:13.942Z,7.95
2019-02-15T02:46:47.892Z,8.60
2019-02-15T02:47:35.076Z,9.00
2019-02-15T02:48:11.123Z,7.70
2019-02-15T02:48:44.761Z,7.55
2019-02-15T02:49:21.133Z,8.68
2019-02-15T02:49:54.770Z,8.28
2019-02-15T02:50:28.455Z,8.85
2019-02-15T02:51:06.296Z,8.35
2019-02-15T02:51:41.525Z,9.85
2019-02-15T02:52:15.216Z,8.45
2019-02-15T02:52:51.393Z,9.78
2019-02-15T02:53:24.865Z,8.38
2019-02-15T02:53:59.037Z,7.75
2019-02-15T02:54:33.051Z,7.92
2019-02-15T02:55:08.508Z,8.38
2019-02-15T02:55:42.390Z,8.23
2019-02-15T02:56:16.944Z,8.68
2019-02-15T02:56:53.296Z,8.60
2019-02-15T02:57:27.519Z,9.00
2019-02-15T02:58:01.491Z,7.83
2019-02-15T02:58:35.054Z,7.80
2019-02-15T02:59:12.685Z,7.60
2019-02-15T02:59:46.961Z,8.20
2019-02-15T03:00:34.032Z,8.85
2019-02-15T03:01:11.912Z,8.78
2019-02-15T03:01:46.077Z,9.50
2019-02-15T03:02:19.915Z,8.18
2019-02-15T03:02:54.028Z,8.48
2019-02-15T03:03:27.866Z,7.53
2019-02-15T03:04:02.813Z,7.53
2019-02-15T03:04:36.349Z,7.50
2019-02-15T03:05:09.880Z,8.73
2019-02-15T03:05:44.037Z,8.65
2019-02-15T03:06:18.043Z,8.43
2019-02-15T03:06:56.281Z,7.58
2019-02-15T03:07:32.666Z,8.43
2019-02-15T03:08:09.626Z,7.60
2019-02-15T03:08:45.335Z,8.05
2019-02-15T03:09:19.127Z,8.08
2019-02-15T03:09:53.126Z,10.10
2019-02-15T03:10:27.217Z,7.90
2019-02-15T03:11:02.001Z,8.85
2019-02-15T03:11:35.823Z,8.48
2019-02-15T03:12:10.087Z,8.55
2019-02-15T03:12:44.244Z,7.97
2019-02-15T03:13:17.849Z,8.45
2019-02-15T03:13:51.556Z,9.43
2019-02-15T03:14:25.358Z,9.23
2019-02-15T03:14:59.020Z,7.95
2019-02-15T03:15:33.490Z,8.70
2019-02-15T03:16:07.351Z,8.80
2019-02-15T03:16:41.037Z,9.03
2019-02-15T03:17:14.714Z,8.95
2019-02-15T03:17:48.415Z,8.88
2019-02-15T03:18:22.187Z,8.25
2019-02-15T03:18:56.222Z,8.38
2019-02-15T03:19:30.086Z,9.03
2019-02-15T03:20:04.260Z,8.58
2019-02-15T03:20:38.152Z,9.38
2019-02-15T03:21:11.996Z,8.40
2019-02-15T03:21:46.313Z,8.65
2019-02-15T03:23:15.065Z,8.95
2019-02-15T03:23:48.672Z,8.98
2019-02-15T03:24:22.406Z,9.88
2019-02-15T03:24:56.128Z,8.38
2019-02-15T03:25:30.294Z,8.75
2019-02-15T03:26:04.195Z,9.35
2019-02-15T03:26:38.785Z,9.40
2019-02-15T03:27:12.612Z,7.72
2019-02-15T03:27:46.237Z,8.65
2019-02-15T03:28:20.141Z,9.03
2019-02-15T03:28:56.409Z,8.80
2019-02-15T03:29:30.836Z,8.93
2019-02-15T03:30:05.335Z,8.35
2019-02-15T03:30:39.509Z,9.05
2019-02-15T03:31:14.551Z,9.78
2019-02-15T03:31:49.051Z,8.88
2019-02-15T03:32:22.751Z,8.38
2019-02-15T03:32:56.902Z,9.33
2019-02-15T03:33:30.661Z,9.33
2019-02-15T03:34:04.686Z,8.70
2019-02-15T03:34:38.401Z,8.13
2019-02-15T03:35:14.133Z,9.53
2019-02-15T03:35:59.925Z,10.23
2019-02-15T03:36:53.079Z,9.45
2019-02-15T03:37:51.915Z,8.28
2019-02-15T03:38:40.181Z,8.28
2019-02-15T03:39:23.718Z,8.68
2019-02-15T03:40:05.657Z,9.48
2019-02-15T03:40:44.602Z,8.15
2019-02-15T03:41:29.089Z,8.13
2019-02-15T03:42:03.790Z,8.88
2019-02-15T03:42:37.973Z,8.75
2019-02-15T03:43:11.919Z,9.38
2019-02-15T03:43:45.809Z,8.38
2019-02-15T03:44:22.681Z,8.88
2019-02-15T03:44:55.999Z,9.35
2019-02-15T03:45:30.260Z,8.80
2019-02-15T03:46:03.871Z,8.90
2019-02-15T03:46:38.295Z,8.28
2019-02-15T03:47:13.839Z,8.38
2019-02-15T03:47:47.659Z,8.75
2019-02-15T03:48:21.586Z,9.25
2019-02-15T03:48:55.252Z,8.50
2019-02-15T03:49:29.510Z,9.00
2019-02-15T03:50:04.923Z,8.33
2019-02-15T03:50:38.865Z,9.63
2019-02-15T03:51:12.761Z,9.20
2019-02-15T03:51:46.715Z,8.88
2019-02-15T03:52:20.142Z,9.83
2019-02-15T03:52:54.350Z,9.05
2019-02-15T03:53:28.246Z,8.48
2019-02-15T03:54:01.927Z,8.13
2019-02-15T03:54:35.435Z,9.50
2019-02-15T03:55:08.922Z,9.25
2019-02-15T03:55:43.384Z,8.58
2019-02-15T03:56:17.416Z,8.48
2019-02-15T03:56:51.226Z,9.30
2019-02-15T03:57:25.189Z,8.75
2019-02-15T03:57:58.909Z,9.33
2019-02-15T03:58:32.673Z,8.85
2019-02-15T03:59:06.296Z,9.03
2019-02-15T03:59:40.156Z,8.38
2019-02-15T04:00:14.221Z,9.23
2019-02-15T04:00:48.121Z,8.60
2019-02-15T04:01:21.902Z,9.50
2019-02-15T04:01:55.390Z,8.83
2019-02-15T04:02:29.389Z,9.13
2019-02-15T04:03:02.965Z,9.25
2019-02-15T04:03:36.821Z,9.03
2019-02-15T04:04:10.596Z,8.75
2019-02-15T04:04:44.733Z,9.53
2019-02-15T04:05:18.549Z,8.50
2019-02-15T04:05:52.353Z,8.38
2019-02-15T04:06:25.782Z,10.05
2019-02-15T04:06:59.741Z,8.45
2019-02-15T04:07:33.947Z,8.63
2019-02-15T04:08:08.219Z,9.48
2019-02-15T04:08:42.595Z,9.25
2019-02-15T04:10:11.637Z,8.45
2019-02-15T04:10:45.482Z,9.10
2019-02-15T04:11:19.712Z,8.75
2019-02-15T04:11:53.865Z,9.28
2019-02-15T04:12:27.589Z,8.08
2019-02-15T04:13:01.798Z,8.75
2019-02-15T04:13:35.753Z,9.18
2019-02-15T04:14:09.472Z,9.33
2019-02-15T04:14:43.356Z,9.40
2019-02-15T04:15:17.192Z,10.23
2019-02-15T04:15:50.914Z,9.88
2019-02-15T04:16:24.810Z,9.58
2019-02-15T04:16:59.606Z,9.65
2019-02-15T04:17:33.352Z,10.58
2019-02-15T04:18:07.256Z,8.20
2019-02-15T04:18:40.936Z,8.13
2019-02-15T04:19:14.705Z,8.88
2019-02-15T04:19:48.708Z,9.08
2019-02-15T04:20:22.209Z,9.13
2019-02-15T04:20:56.261Z,8.75
2019-02-15T04:21:30.461Z,9.53
2019-02-15T04:22:04.432Z,9.20
2019-02-15T04:22:38.879Z,9.15
2019-02-15T04:23:12.823Z,10.08
2019-02-15T04:23:47.434Z,9.73
2019-02-15T04:24:21.184Z,8.73
2019-02-15T04:24:55.671Z,9.73
2019-02-15T04:25:29.909Z,9.50
2019-02-15T04:26:03.508Z,9.18
2019-02-15T04:26:37.306Z,10.18
2019-02-15T04:27:11.023Z,9.98
2019-02-15T04:27:44.752Z,8.45
2019-02-15T04:28:18.821Z,9.40
2019-02-15T04:28:52.643Z,9.50
2019-02-15T04:29:27.641Z,9.68
2019-02-15T04:30:03.596Z,8.98
2019-02-15T04:30:40.455Z,9.40
2019-02-15T04:31:14.034Z,9.90
2019-02-15T04:31:47.593Z,9.63
2019-02-15T04:32:21.200Z,9.05
2019-02-15T04:32:55.167Z,9.28
2019-02-15T04:33:29.030Z,9.95
2019-02-15T04:34:02.883Z,10.15
2019-02-15T04:34:36.413Z,9.80
2019-02-15T04:35:10.381Z,10.13
2019-02-15T04:35:44.001Z,9.28
2019-02-15T04:36:17.584Z,10.18
2019-02-15T04:36:51.475Z,10.65
2019-02-15T04:37:25.074Z,9.13
2019-02-15T04:37:58.621Z,9.03
2019-02-15T04:38:32.389Z,9.03
2019-02-15T04:39:06.054Z,8.80
2019-02-15T04:39:39.657Z,9.95
2019-02-15T04:40:13.381Z,9.33
2019-02-15T04:40:47.363Z,10.55
2019-02-15T04:41:21.271Z,9.60
2019-02-15T04:41:54.930Z,9.28
2019-02-15T04:42:28.546Z,10.43
2019-02-15T04:43:02.598Z,9.05
2019-02-15T04:43:36.125Z,9.50
2019-02-15T04:44:09.654Z,9.78
2019-02-15T04:44:43.455Z,9.15
2019-02-15T04:45:19.493Z,9.03
2019-02-15T04:45:53.225Z,9.55
2019-02-15T04:46:27.217Z,9.78
2019-02-15T04:47:00.702Z,9.25
2019-02-15T04:47:34.929Z,9.95
2019-02-15T04:48:08.990Z,10.25
2019-02-15T04:48:43.139Z,8.35
2019-02-15T04:49:16.685Z,9.68
2019-02-15T04:49:50.587Z,9.05
2019-02-15T04:50:24.274Z,9.38
2019-02-15T04:50:57.721Z,10.40
2019-02-15T04:51:31.329Z,9.25
2019-02-15T04:52:05.144Z,9.30
2019-02-15T04:52:39.134Z,9.00
2019-02-15T04:53:12.932Z,9.53
2019-02-15T04:53:46.550Z,8.80
2019-02-15T04:54:20.944Z,9.30
2019-02-15T04:54:54.498Z,9.68
2019-02-15T04:55:28.319Z,9.60
2019-02-15T04:56:01.970Z,10.08
2019-02-15T04:56:35.901Z,9.60
2019-02-15T04:57:10.174Z,10.58
2019-02-15T04:57:43.746Z,10.25
2019-02-15T04:58:17.964Z,9.28
2019-02-15T04:58:51.669Z,9.10
2019-02-15T04:59:25.169Z,9.20
2019-02-15T04:59:58.706Z,9.65
2019-02-15T05:00:32.212Z,9.85
2019-02-15T05:01:05.707Z,9.28
2019-02-15T05:01:39.302Z,8.28
2019-02-15T05:02:12.889Z,10.45
2019-02-15T05:02:46.345Z,9.20
2019-02-15T05:03:20.055Z,9.88
2019-02-15T05:03:53.653Z,9.48
2019-02-15T05:04:27.197Z,9.23
2019-02-15T05:05:00.714Z,9.45
2019-02-15T05:05:34.311Z,9.13
2019-02-15T05:06:08.286Z,9.05
2019-02-15T05:06:42.334Z,10.40
2019-02-15T05:07:15.856Z,9.45
2019-02-15T05:07:49.681Z,9.25
2019-02-15T05:08:23.113Z,9.50
2019-02-15T05:08:56.657Z,9.63
2019-02-15T05:09:30.206Z,9.28
2019-02-15T05:10:04.286Z,9.55
2019-02-15T05:10:37.872Z,9.48
2019-02-15T05:11:11.435Z,8.93
2019-02-15T05:11:44.978Z,9.95
2019-02-15T05:12:18.661Z,11.80
2019-02-15T05:12:53.284Z,9.88
2019-02-15T05:13:26.797Z,10.98
2019-02-15T05:14:00.483Z,10.05
2019-02-15T05:14:35.061Z,9.40
2019-02-15T05:15:08.888Z,10.75
2019-02-15T05:15:43.952Z,10.13
2019-02-15T05:16:18.510Z,9.55
2019-02-15T05:16:53.197Z,9.93
2019-02-15T05:17:27.131Z,10.15
2019-02-15T05:18:00.668Z,9.58
2019-02-15T05:18:34.260Z,9.30
2019-02-15T05:19:07.853Z,9.58
2019-02-15T05:19:41.455Z,10.03
2019-02-15T05:20:15.024Z,9.50
2019-02-15T05:20:49.048Z,10.28
2019-02-15T05:21:22.506Z,10.13
2019-02-15T05:21:58.288Z,9.33
2019-02-15T05:22:32.182Z,8.95
2019-02-15T05:23:05.748Z,10.53
2019-02-15T05:23:39.267Z,10.93
2019-02-15T05:24:12.902Z,9.85
2019-02-15T05:24:47.368Z,10.28
2019-02-15T05:25:21.982Z,10.30
2019-02-15T05:25:55.882Z,9.90
2019-02-15T05:26:30.052Z,9.38
2019-02-15T05:27:05.352Z,9.23
2019-02-15T05:27:39.362Z,10.88
2019-02-15T05:28:13.695Z,10.15
2019-02-15T05:28:49.881Z,9.35
2019-02-15T05:29:24.835Z,9.55
2019-02-15T05:30:00.405Z,10.15
2019-02-15T05:30:34.224Z,10.13
2019-02-15T05:31:12.332Z,10.53
2019-02-15T05:31:48.105Z,9.80
2019-02-15T05:32:21.655Z,10.60
2019-02-15T05:32:55.130Z,9.38
2019-02-15T05:33:29.253Z,10.48
2019-02-15T05:34:03.088Z,8.70
2019-02-15T05:34:38.284Z,10.48
2019-02-15T05:35:14.873Z,10.00
2019-02-15T05:35:51.081Z,10.85
2019-02-15T05:36:24.711Z,10.05
2019-02-15T05:36:58.554Z,9.78
2019-02-15T05:37:35.053Z,11.00
2019-02-15T05:38:09.896Z,10.30
2019-02-15T05:38:45.137Z,9.28
2019-02-15T05:39:19.415Z,10.32
2019-02-15T05:39:54.271Z,10.72
2019-02-15T05:40:29.781Z,9.73
2019-02-15T05:41:03.469Z,9.78
2019-02-15T05:41:37.157Z,9.58
2019-02-15T05:42:12.470Z,9.30
2019-02-15T05:42:46.979Z,9.40
2019-02-15T05:43:20.753Z,10.50
2019-02-15T05:43:55.277Z,10.30
2019-02-15T05:44:31.186Z,10.08
2019-02-15T05:45:07.135Z,9.70
2019-02-15T05:45:40.957Z,9.18
2019-02-15T05:46:16.439Z,9.18
2019-02-15T05:46:52.788Z,9.35
2019-02-15T05:47:28.818Z,10.03
2019-02-15T05:48:05.103Z,9.13
2019-02-15T05:48:38.738Z,9.93
2019-02-15T05:49:14.044Z,9.35
2019-02-15T05:49:47.829Z,9.63
2019-02-15T05:50:22.639Z,9.00
2019-02-15T05:50:56.218Z,9.95
2019-02-15T05:51:29.708Z,9.75
2019-02-15T05:52:04.337Z,8.90
2019-02-15T05:52:40.161Z,9.45
2019-02-15T05:53:15.189Z,9.05
2019-02-15T05:53:51.123Z,8.83
2019-02-15T05:54:28.089Z,9.13
2019-02-15T05:55:04.752Z,9.50
2019-02-15T05:55:38.898Z,10.10
2019-02-15T05:56:13.206Z,10.03
2019-02-15T05:56:49.438Z,10.88
2019-02-15T05:57:24.148Z,9.70
2019-02-15T05:57:59.028Z,9.08
2019-02-15T05:58:34.114Z,9.63
2019-02-15T05:59:07.584Z,10.20
2019-02-15T05:59:43.271Z,9.53
2019-02-15T06:00:17.950Z,8.85
2019-02-15T06:00:54.658Z,9.73
2019-02-15T06:01:30.120Z,9.58
2019-02-15T06:02:05.628Z,10.90
2019-02-15T06:03:35.045Z,9.53
2019-02-15T06:04:09.252Z,10.30
2019-02-15T06:04:42.802Z,9.63
2019-02-15T06:05:16.551Z,10.50
2019-02-15T06:05:50.828Z,10.78
2019-02-15T06:06:24.437Z,10.00
2019-02-15T06:06:58.559Z,9.40
2019-02-15T06:07:32.803Z,8.65
2019-02-15T06:08:06.871Z,9.08
2019-02-15T06:08:40.880Z,10.00
2019-02-15T06:09:15.381Z,9.38
2019-02-15T06:09:50.009Z,9.70
2019-02-15T06:10:24.240Z,9.15
2019-02-15T06:11:06.571Z,9.18
2019-02-15T06:11:34.451Z,10.10
2019-02-15T06:12:08.459Z,10.65
2019-02-15T06:12:43.868Z,9.83
2019-02-15T06:13:17.813Z,8.78
2019-02-15T06:13:52.276Z,9.35
2019-02-15T06:14:26.127Z,9.35
2019-02-15T06:15:00.407Z,10.05
2019-02-15T06:15:34.762Z,9.95
2019-02-15T06:16:08.680Z,9.50
2019-02-15T06:16:42.952Z,9.30
2019-02-15T06:17:17.122Z,9.53
2019-02-15T06:17:51.259Z,9.78
2019-02-15T06:18:25.122Z,8.88
2019-02-15T06:19:18.175Z,9.18
2019-02-15T06:19:52.378Z,8.78
2019-02-15T06:20:26.173Z,9.35
2019-02-15T06:21:00.040Z,9.33
2019-02-15T06:21:33.864Z,9.60
2019-02-15T06:22:07.941Z,9.43
2019-02-15T06:22:41.958Z,9.93
2019-02-15T06:23:15.721Z,10.28
2019-02-15T06:23:49.544Z,9.15
2019-02-15T06:24:23.676Z,9.38
2019-02-15T06:24:57.586Z,9.70
2019-02-15T06:25:33.018Z,9.40
2019-02-15T06:26:06.666Z,8.45
2019-02-15T06:26:40.552Z,9.48
2019-02-15T06:27:16.151Z,8.75
2019-02-15T06:27:49.791Z,9.30
2019-02-15T06:28:23.755Z,8.95
2019-02-15T06:28:57.317Z,9.48
2019-02-15T06:29:31.024Z,10.63
2019-02-15T06:30:06.509Z,8.28
2019-02-15T06:30:40.146Z,9.38
2019-02-15T06:31:13.890Z,8.60
2019-02-15T06:31:47.468Z,9.68
2019-02-15T06:32:21.083Z,9.70
2019-02-15T06:32:54.601Z,8.88
2019-02-15T06:33:28.172Z,10.08
2019-02-15T06:34:01.694Z,9.73
2019-02-15T06:34:35.271Z,9.18
2019-02-15T06:35:09.044Z,10.05
2019-02-15T06:35:42.579Z,9.30
2019-02-15T06:36:16.259Z,9.40
2019-02-15T06:36:49.918Z,9.50
2019-02-15T06:37:23.696Z,9.50
2019-02-15T06:37:57.368Z,10.28
2019-02-15T06:38:36.816Z,10.13
2019-02-15T06:39:10.289Z,9.90
2019-02-15T06:39:43.911Z,9.65
2019-02-15T06:40:17.481Z,10.38
2019-02-15T06:40:51.120Z,10.60
2019-02-15T06:41:26.105Z,9.60
2019-02-15T06:41:59.773Z,9.90
2019-02-15T06:42:33.590Z,10.80
2019-02-15T06:43:12.664Z,9.48
2019-02-15T06:43:46.762Z,10.60
2019-02-15T06:44:20.356Z,10.20
2019-02-15T06:44:53.914Z,9.70
2019-02-15T06:45:27.900Z,10.00
2019-02-15T06:46:01.564Z,9.58
2019-02-15T06:46:35.281Z,9.30
2019-02-15T06:47:08.883Z,10.08
2019-02-15T06:47:42.434Z,9.60
2019-02-15T06:48:16.097Z,10.28
2019-02-15T06:48:49.640Z,10.28
2019-02-15T06:49:23.258Z,10.23
2019-02-15T06:49:56.796Z,10.32
2019-02-15T06:50:30.569Z,9.33
2019-02-15T06:51:04.176Z,9.60
2019-02-15T06:51:37.844Z,9.78
2019-02-15T06:52:11.574Z,9.88
2019-02-15T06:52:45.206Z,10.88
2019-02-15T06:53:18.837Z,10.18
2019-02-15T06:53:52.343Z,9.43
2019-02-15T06:54:25.841Z,9.78
2019-02-15T06:55:18.492Z,9.93
2019-02-15T06:55:52.198Z,10.23
2019-02-15T06:56:26.002Z,10.45
2019-02-15T06:56:59.597Z,12.10
2019-02-15T06:57:33.177Z,10.40
2019-02-15T06:58:06.796Z,12.20
2019-02-15T06:58:51.830Z,11.50
2019-02-15T06:59:33.713Z,10.90
2019-02-15T07:00:30.687Z,10.82
2019-02-15T07:01:17.881Z,11.15
2019-02-15T07:02:14.483Z,10.93
2019-02-15T07:03:07.229Z,10.85
2019-02-15T07:04:11.700Z,11.00
2019-02-15T07:04:56.037Z,11.18
2019-02-15T07:05:29.700Z,10.28
2019-02-15T07:06:03.213Z,9.60
2019-02-15T07:06:36.769Z,9.68
2019-02-15T07:07:13.515Z,10.35
2019-02-15T07:07:47.103Z,9.15
2019-02-15T07:08:20.611Z,9.80
2019-02-15T07:08:54.586Z,9.60
2019-02-15T07:09:28.250Z,10.75
2019-02-15T07:10:01.966Z,9.43
2019-02-15T07:10:35.728Z,9.83
2019-02-15T07:11:09.294Z,10.63
2019-02-15T07:11:43.418Z,9.50
2019-02-15T07:12:16.980Z,8.88
2019-02-15T07:12:50.974Z,10.38
2019-02-15T07:13:24.905Z,9.53
2019-02-15T07:13:58.777Z,10.88
2019-02-15T07:14:32.694Z,9.53
2019-02-15T07:15:06.381Z,9.80
2019-02-15T07:15:40.731Z,9.80
2019-02-15T07:16:14.322Z,10.75
2019-02-15T07:16:47.858Z,9.85
2019-02-15T07:17:21.556Z,10.13
2019-02-15T07:17:55.215Z,10.00
2019-02-15T07:18:29.084Z,9.33
2019-02-15T07:19:02.695Z,10.08
2019-02-15T07:19:36.438Z,10.38
2019-02-15T07:20:10.053Z,10.08
2019-02-15T07:20:43.789Z,9.68
2019-02-15T07:21:17.381Z,10.03
2019-02-15T07:21:50.947Z,10.13
2019-02-15T07:22:24.558Z,9.40
2019-02-15T07:22:58.109Z,9.98
2019-02-15T07:23:31.793Z,9.75
2019-02-15T07:24:05.495Z,8.75
2019-02-15T07:24:39.050Z,10.20
2019-02-15T07:25:12.823Z,9.85
2019-02-15T07:25:48.912Z,9.60
2019-02-15T07:26:22.523Z,9.20
2019-02-15T07:26:58.301Z,8.75
2019-02-15T07:27:32.178Z,9.33
2019-02-15T07:28:05.777Z,10.03
2019-02-15T07:28:39.206Z,8.75
2019-02-15T07:29:12.908Z,9.08
2019-02-15T07:29:46.386Z,9.15
2019-02-15T07:30:19.970Z,9.43
2019-02-15T07:30:53.743Z,9.13
2019-02-15T07:31:27.293Z,10.20
2019-02-15T07:32:01.307Z,10.60
2019-02-15T07:32:34.992Z,10.70
2019-02-15T07:33:08.861Z,10.82
2019-02-15T07:33:42.541Z,10.25
2019-02-15T07:34:18.870Z,10.68
2019-02-15T07:34:52.462Z,10.23
2019-02-15T07:35:25.963Z,11.33
2019-02-15T07:35:59.644Z,9.48
2019-02-15T07:36:33.243Z,8.70
2019-02-15T07:37:07.090Z,10.23
2019-02-15T07:37:40.672Z,9.25
2019-02-15T07:38:14.519Z,10.00
2019-02-15T07:38:48.067Z,9.60
2019-02-15T07:39:21.628Z,9.18
2019-02-15T07:39:55.114Z,10.55
2019-02-15T07:40:28.625Z,8.83
2019-02-15T07:41:02.186Z,10.20
2019-02-15T07:41:35.751Z,9.68
2019-02-15T07:42:09.404Z,9.55
2019-02-15T07:42:42.909Z,9.80
2019-02-15T07:43:16.498Z,9.25
2019-02-15T07:43:50.021Z,8.95
2019-02-15T07:44:23.531Z,9.70
2019-02-15T07:44:57.093Z,9.53
2019-02-15T07:45:30.699Z,9.50
2019-02-15T07:46:04.228Z,10.08
2019-02-15T07:46:37.817Z,9.28
2019-02-15T07:47:11.412Z,9.20
2019-02-15T07:47:44.991Z,9.40
2019-02-15T07:48:19.273Z,9.60
2019-02-15T07:48:53.088Z,9.33
2019-02-15T07:49:27.254Z,9.10
2019-02-15T07:50:01.235Z,9.75
2019-02-15T07:50:34.844Z,9.50
2019-02-15T07:51:09.890Z,10.45
2019-02-15T07:51:46.768Z,9.20
2019-02-15T07:52:20.426Z,9.75
2019-02-15T07:52:54.142Z,10.58
2019-02-15T07:53:27.675Z,9.70
2019-02-15T07:54:01.170Z,10.13
2019-02-15T07:54:34.683Z,10.32
2019-02-15T07:55:08.190Z,9.63
2019-02-15T07:55:41.692Z,10.30
2019-02-15T07:56:15.233Z,9.50
2019-02-15T07:56:48.782Z,8.65
2019-02-15T07:57:22.450Z,11.00
2019-02-15T07:57:56.038Z,10.32
2019-02-15T07:58:29.784Z,9.98
2019-02-15T07:59:03.280Z,9.58
2019-02-15T07:59:36.724Z,11.15
2019-02-15T08:00:11.264Z,9.75
2019-02-15T08:00:44.773Z,9.75
2019-02-15T08:01:18.297Z,10.08
2019-02-15T08:02:01.347Z,10.03
2019-02-15T08:02:28.650Z,9.93
2019-02-15T08:03:02.183Z,10.10
2019-02-15T08:03:35.703Z,9.43